createdAt,value
2019-03-04T00:05:01.940Z,13.00
2019-03-04T00:10:07.523Z,13.00
2019-03-04T00:15:12.911Z,13.00
2019-03-04T00:20:18.288Z,13.00
2019-03-04T00:25:23.684Z,13.10
2019-03-04T00:30:29.048Z,13.20
2019-03-04T00:35:34.386Z,13.20
2019-03-04T00:40:39.789Z,13.20
2019-03-04T00:45:45.337Z,13.20
2019-03-04T00:50:50.726Z,13.20
2019-03-04T00:55:56.079Z,13.20
2019-03-04T01:01:01.490Z,13.20
2019-03-04T01:06:06.893Z,13.20
2019-03-04T01:11:12.367Z,13.20
2019-03-04T01:16:17.740Z,13.20
2019-03-04T01:21:23.145Z,13.10
2019-03-04T01:26:28.606Z,13.10
2019-03-04T01:31:33.963Z,13.00
2019-03-04T01:36:39.415Z,13.00
2019-03-04T01:41:44.808Z,12.90
2019-03-04T01:46:50.156Z,13.00
2019-03-04T01:51:55.688Z,12.90
2019-03-04T01:57:01.099Z,13.00
2019-03-04T02:02:06.664Z,12.90
2019-03-04T02:07:12.101Z,13.00
2019-03-04T02:12:17.619Z,13.00
2019-03-04T02:17:22.970Z,12.90
2019-03-04T02:22:28.422Z,13.00
2019-03-04T02:27:33.828Z,13.00
2019-03-04T02:32:39.195Z,13.00
2019-03-04T02:37:44.536Z,13.00
2019-03-04T02:42:49.915Z,12.90
2019-03-04T02:47:55.311Z,12.90
2019-03-04T02:53:00.676Z,13.00
2019-03-04T02:58:06.217Z,13.00
2019-03-04T03:03:11.642Z,13.10
2019-03-04T03:08:17.086Z,13.20
2019-03-04T03:13:22.584Z,13.20
2019-03-04T03:18:28.051Z,13.20
2019-03-04T03:23:33.545Z,13.10
2019-03-04T03:28:39.001Z,13.20
2019-03-04T03:33:44.434Z,13.10
2019-03-04T03:38:49.953Z,13.00
2019-03-04T03:43:55.425Z,13.00
2019-03-04T03:49:00.797Z,13.00
2019-03-04T03:54:06.182Z,13.00
2019-03-04T03:59:11.571Z,13.00
2019-03-04T04:04:17.035Z,13.10
2019-03-04T04:09:22.525Z,13.10
2019-03-04T04:14:29.348Z,13.10
2019-03-04T04:19:34.921Z,13.20
2019-03-04T04:24:40.313Z,13.20
2019-03-04T04:29:45.719Z,13.20
2019-03-04T04:34:51.087Z,13.20
2019-03-04T04:39:56.507Z,13.10
2019-03-04T04:45:02.027Z,13.10
2019-03-04T04:50:09.666Z,13.10
2019-03-04T04:55:15.126Z,13.10
2019-03-04T05:00:20.532Z,13.00
2019-03-04T05:05:25.938Z,12.80
2019-03-04T05:10:31.540Z,12.70
2019-03-04T05:15:36.982Z,12.50
2019-03-04T05:20:42.391Z,12.40
2019-03-04T05:25:47.800Z,12.30
2019-03-04T05:30:53.169Z,12.50
2019-03-04T05:35:58.668Z,12.60
2019-03-04T05:41:04.063Z,12.70
2019-03-04T05:46:09.545Z,12.70
2019-03-04T05:51:15.081Z,12.80
2019-03-04T05:56:20.462Z,12.90
2019-03-04T06:01:31.595Z,13.00
2019-03-04T06:07:01.793Z,13.10
2019-03-04T06:12:07.181Z,13.20
2019-03-04T06:17:12.577Z,13.20
2019-03-04T06:22:17.973Z,13.20
2019-03-04T06:27:23.553Z,13.20
2019-03-04T06:32:28.992Z,12.80
2019-03-04T06:37:34.453Z,12.10
2019-03-04T06:42:39.883Z,11.40
2019-03-04T06:47:45.402Z,10.90
2019-03-04T06:52:50.842Z,10.70
2019-03-04T06:57:56.337Z,10.50
2019-03-04T07:03:04.675Z,10.10
2019-03-04T07:08:20.725Z,9.90
2019-03-04T07:13:26.221Z,9.80
2019-03-04T07:18:31.582Z,9.80
2019-03-04T07:23:36.982Z,9.80
2019-03-04T07:28:42.400Z,9.90
2019-03-04T07:33:47.917Z,9.90
2019-03-04T07:39:06.144Z,10.00
2019-03-04T07:44:11.572Z,10.10
2019-03-04T07:49:16.951Z,10.20
2019-03-04T07:54:22.395Z,10.30
2019-03-04T07:59:30.118Z,11.20
2019-03-04T08:04:35.542Z,12.30
2019-03-04T08:10:36.597Z,11.90
2019-03-04T08:15:51.845Z,11.60
2019-03-04T08:20:57.340Z,11.80
2019-03-04T08:26:03.183Z,11.70
2019-03-04T08:31:09.207Z,11.70
2019-03-04T08:36:15.048Z,11.70
2019-03-04T08:41:20.451Z,12.30
2019-03-04T08:46:25.897Z,17.60
2019-03-04T08:51:31.270Z,22.10
2019-03-04T08:56:36.708Z,24.70
2019-03-04T09:01:42.343Z,25.00
2019-03-04T09:06:47.742Z,23.30
2019-03-04T09:11:53.238Z,20.90
2019-03-04T09:16:59.038Z,18.90
2019-03-04T09:22:04.487Z,16.70
2019-03-04T09:27:09.924Z,15.30
2019-03-04T09:32:15.304Z,14.70
2019-03-04T09:37:20.880Z,14.20
2019-03-04T09:42:28.171Z,14.30
2019-03-04T09:47:33.513Z,14.30
2019-03-04T09:52:38.994Z,14.30
2019-03-04T09:57:44.421Z,14.20
2019-03-04T10:02:49.921Z,13.80
2019-03-04T10:08:33.677Z,13.80
2019-03-04T10:14:30.343Z,13.80
2019-03-04T10:20:25.550Z,14.30
2019-03-04T10:26:22.591Z,15.00
2019-03-04T10:31:56.533Z,15.40
2019-03-04T10:37:31.943Z,15.20
2019-03-04T10:43:38.914Z,15.20
2019-03-04T10:48:44.348Z,15.10
2019-03-04T10:53:49.790Z,14.80
2019-03-04T10:58:55.178Z,14.50
2019-03-04T11:04:00.572Z,14.10
2019-03-04T11:09:07.733Z,13.90
2019-03-04T11:14:13.364Z,13.80
2019-03-04T11:19:18.762Z,13.50
2019-03-04T11:24:24.140Z,13.40
2019-03-04T11:29:29.626Z,13.40
2019-03-04T11:34:35.102Z,13.30
2019-03-04T11:39:46.684Z,13.20
2019-03-04T11:44:52.108Z,13.10
2019-03-04T11:49:57.479Z,13.00
2019-03-04T11:55:02.870Z,12.60
2019-03-04T12:00:17.744Z,11.80
2019-03-04T12:05:23.124Z,11.30
2019-03-04T12:10:28.472Z,10.60
2019-03-04T12:15:33.813Z,9.90
2019-03-04T12:20:39.201Z,9.50
2019-03-04T12:25:44.598Z,9.30
2019-03-04T12:30:49.975Z,9.20
2019-03-04T12:35:55.425Z,9.20
2019-03-04T12:41:00.779Z,9.20
2019-03-04T12:46:06.748Z,9.20
2019-03-04T12:51:12.078Z,9.30
2019-03-04T12:56:17.481Z,9.40
2019-03-04T13:01:22.901Z,9.70
2019-03-04T13:06:28.296Z,10.30
2019-03-04T13:11:33.655Z,10.80
2019-03-04T13:16:39.030Z,11.20
2019-03-04T13:21:44.421Z,11.50
2019-03-04T13:26:49.874Z,11.90
2019-03-04T13:31:55.257Z,12.10
2019-03-04T13:37:00.597Z,12.20
2019-03-04T13:42:06.003Z,12.30
2019-03-04T13:47:11.605Z,11.90
2019-03-04T13:52:17.038Z,11.60
2019-03-04T13:57:22.370Z,11.30
2019-03-04T14:02:27.734Z,11.30
2019-03-04T14:07:33.199Z,11.40
2019-03-04T14:12:38.574Z,11.60
2019-03-04T14:17:43.937Z,11.50
2019-03-04T14:22:57.315Z,11.60
2019-03-04T14:27:56.465Z,11.60
2019-03-04T14:33:01.861Z,11.60
2019-03-04T14:38:07.227Z,11.60
2019-03-04T14:43:12.695Z,11.60
2019-03-04T14:48:18.278Z,11.50
2019-03-04T14:53:23.641Z,11.50
2019-03-04T14:58:29.039Z,11.60
2019-03-04T15:03:34.475Z,11.70
2019-03-04T15:08:39.870Z,11.50
2019-03-04T15:13:46.227Z,11.40
2019-03-04T15:18:51.688Z,11.20
2019-03-04T15:23:57.265Z,11.10
2019-03-04T15:29:02.671Z,11.10
2019-03-04T15:34:08.130Z,11.00
2019-03-04T15:39:22.877Z,10.90
2019-03-04T15:44:23.876Z,10.70
2019-03-04T15:49:29.431Z,10.70
2019-03-04T15:54:34.915Z,10.70
2019-03-04T15:59:40.278Z,10.80
2019-03-04T16:04:45.753Z,10.70
2019-03-04T16:09:51.802Z,10.70
2019-03-04T16:14:57.185Z,10.70
2019-03-04T16:20:02.564Z,10.60
2019-03-04T16:25:08.714Z,10.50
2019-03-04T16:30:17.486Z,10.40
2019-03-04T16:35:23.412Z,10.40
2019-03-04T16:40:29.662Z,10.40
2019-03-04T16:45:36.895Z,10.30
2019-03-04T16:50:44.742Z,10.10
2019-03-04T16:55:51.204Z,10.00
2019-03-04T17:00:57.131Z,9.80
2019-03-04T17:06:07.819Z,9.70
2019-03-04T17:11:16.872Z,9.50
2019-03-04T17:16:26.944Z,9.40
2019-03-04T17:21:33.747Z,9.30
2019-03-04T17:26:41.358Z,9.20
2019-03-04T17:31:49.794Z,9.00
2019-03-04T17:36:56.634Z,8.90
2019-03-04T17:42:02.587Z,8.80
2019-03-04T17:47:08.027Z,8.70
2019-03-04T17:52:13.470Z,8.70
2019-03-04T17:57:18.946Z,8.60
2019-03-04T18:02:24.341Z,8.70
2019-03-04T18:07:29.769Z,8.70
2019-03-04T18:12:35.126Z,8.60
2019-03-04T18:17:40.506Z,8.70
2019-03-04T18:22:45.915Z,8.60
2019-03-04T18:27:56.006Z,8.60
2019-03-04T18:34:07.235Z,8.60
2019-03-04T18:40:13.907Z,8.50
2019-03-04T18:46:22.568Z,8.50
2019-03-04T18:51:30.037Z,8.40
2019-03-04T18:56:35.444Z,8.40
2019-03-04T19:01:40.816Z,8.30
2019-03-04T19:06:46.193Z,8.20
2019-03-04T19:11:51.661Z,8.10
2019-03-04T19:16:57.015Z,8.10
2019-03-04T19:22:02.350Z,8.00
2019-03-04T19:27:07.703Z,8.00
2019-03-04T19:32:13.105Z,8.00
2019-03-04T19:37:18.516Z,7.90
2019-03-04T19:42:23.940Z,7.90
2019-03-04T19:47:29.349Z,7.80
2019-03-04T19:52:34.721Z,7.70
2019-03-04T19:57:41.969Z,7.60
2019-03-04T20:02:48.192Z,7.50
2019-03-04T20:07:53.637Z,7.50
2019-03-04T20:12:59.093Z,7.50
2019-03-04T20:18:04.493Z,7.40
2019-03-04T20:23:09.840Z,7.50
2019-03-04T20:28:16.967Z,7.70
2019-03-04T20:33:22.369Z,7.90
2019-03-04T20:38:33.315Z,8.00
2019-03-04T20:43:38.742Z,8.20
2019-03-04T20:48:44.268Z,8.30
2019-03-04T20:53:49.785Z,8.40
2019-03-04T20:58:55.154Z,8.50
2019-03-04T21:04:00.507Z,8.50
2019-03-04T21:09:07.280Z,8.40
2019-03-04T21:14:12.665Z,8.30
2019-03-04T21:19:18.078Z,8.20
2019-03-04T21:24:23.410Z,8.20
2019-03-04T21:30:30.249Z,8.10
2019-03-04T21:36:16.019Z,8.00
2019-03-04T21:42:17.582Z,7.90
2019-03-04T21:47:40.907Z,7.90
2019-03-04T21:53:18.277Z,7.90
2019-03-04T21:58:23.641Z,8.00
2019-03-04T22:03:33.511Z,8.00
2019-03-04T22:08:38.902Z,8.00
2019-03-04T22:13:44.262Z,8.10
2019-03-04T22:18:49.679Z,8.00
2019-03-04T22:23:55.057Z,8.10
2019-03-04T22:29:00.466Z,8.00
2019-03-04T22:34:05.927Z,8.10
2019-03-04T22:39:11.284Z,8.10
2019-03-04T22:44:16.706Z,8.10
2019-03-04T22:49:22.069Z,8.20
2019-03-04T22:54:29.095Z,8.30
2019-03-04T22:59:34.614Z,8.30
2019-03-04T23:05:10.255Z,8.30
2019-03-04T23:10:44.070Z,8.40
2019-03-04T23:15:51.619Z,8.60
2019-03-04T23:20:57.009Z,8.50
2019-03-04T23:26:02.583Z,8.40
2019-03-04T23:31:08.628Z,8.30
2019-03-04T23:36:14.019Z,8.20
2019-03-04T23:41:19.815Z,8.20
2019-03-04T23:46:25.209Z,8.20
2019-03-04T23:51:30.603Z,8.30
2019-03-04T23:56:36.009Z,8.20
